sensor_id;sensor_type;location;lat;lon;timestamp;pressure;altitude;pressure_sealevel;temperature;humidity
5500;BME280;2772;42.700;23.304;2023-02-19T00:02:07;95428.72;;;9.46;100.00
5500;BME280;2772;42.700;23.304;2023-02-19T00:04:34;95431.69;;;9.58;100.00
5500;BME280;2772;42.700;23.304;2023-02-19T00:07:01;95436.94;;;9.63;93.96
5500;BME280;2772;42.700;23.304;2023-02-19T00:09:28;95429.16;;;9.66;100.00
5500;BME280;2772;42.700;23.304;2023-02-19T00:11:54;95419.50;;;9.38;99.85
5500;BME280;2772;42.700;23.304;2023-02-19T00:14:22;95413.25;;;9.48;100.00
5500;BME280;2772;42.700;23.304;2023-02-19T00:16:49;95409.22;;;9.50;100.00
5500;BME280;2772;42.700;23.304;2023-02-19T00:19:18;95421.50;;;9.46;99.19
5500;BME280;2772;42.700;23.304;2023-02-19T00:21:45;95411.16;;;9.45;100.00
5500;BME280;2772;42.700;23.304;2023-02-19T00:24:13;95412.25;;;9.44;100.00
5500;BME280;2772;42.700;23.304;2023-02-19T00:26:41;95408.94;;;9.52;100.00
5500;BME280;2772;42.700;23.304;2023-02-19T00:29:08;95406.75;;;9.54;100.00
5500;BME280;2772;42.700;23.304;2023-02-19T00:31:39;95411.50;;;9.57;100.00
5500;BME280;2772;42.700;23.304;2023-02-19T00:34:06;95396.75;;;9.64;100.00
5500;BME280;2772;42.700;23.304;2023-02-19T00:36:35;95413.19;;;9.66;100.00
5500;BME280;2772;42.700;23.304;2023-02-19T00:39:02;95399.50;;;9.73;100.00
5500;BME280;2772;42.700;23.304;2023-02-19T00:41:29;95393.44;;;9.73;100.00
5500;BME280;2772;42.700;23.304;2023-02-19T00:43:58;95393.13;;;9.74;100.00
5500;BME280;2772;42.700;23.304;2023-02-19T00:46:26;95385.34;;;9.78;100.00
5500;BME280;2772;42.700;23.304;2023-02-19T00:48:55;95372.34;;;9.76;100.00
5500;BME280;2772;42.700;23.304;2023-02-19T00:51:23;95370.78;;;9.89;100.00
5500;BME280;2772;42.700;23.304;2023-02-19T00:53:50;95361.00;;;9.84;100.00
5500;BME280;2772;42.700;23.304;2023-02-19T00:56:18;95380.22;;;9.81;100.00
5500;BME280;2772;42.700;23.304;2023-02-19T00:58:45;95379.25;;;9.77;100.00
5500;BME280;2772;42.700;23.304;2023-02-19T01:01:13;95375.50;;;9.78;100.00
5500;BME280;2772;42.700;23.304;2023-02-19T01:03:40;95378.94;;;9.79;100.00
5500;BME280;2772;42.700;23.304;2023-02-19T01:06:10;95374.59;;;9.83;100.00
5500;BME280;2772;42.700;23.304;2023-02-19T01:08:37;95374.59;;;9.83;100.00
5500;BME280;2772;42.700;23.304;2023-02-19T01:11:05;95381.41;;;9.75;100.00
5500;BME280;2772;42.700;23.304;2023-02-19T01:13:32;95396.28;;;9.76;100.00
5500;BME280;2772;42.700;23.304;2023-02-19T01:16:03;95383.56;;;9.73;100.00
5500;BME280;2772;42.700;23.304;2023-02-19T01:18:30;95367.59;;;9.73;100.00
5500;BME280;2772;42.700;23.304;2023-02-19T01:20:57;95376.16;;;9.70;100.00
5500;BME280;2772;42.700;23.304;2023-02-19T01:23:25;95372.09;;;9.59;94.93
5500;BME280;2772;42.700;23.304;2023-02-19T01:25:52;95373.19;;;9.58;94.70
5500;BME280;2772;42.700;23.304;2023-02-19T01:28:19;95387.00;;;9.60;96.24
5500;BME280;2772;42.700;23.304;2023-02-19T01:30:46;95391.00;;;9.57;100.00
5500;BME280;2772;42.700;23.304;2023-02-19T01:33:13;95382.75;;;9.59;100.00
5500;BME280;2772;42.700;23.304;2023-02-19T01:35:40;95380.59;;;9.61;100.00
5500;BME280;2772;42.700;23.304;2023-02-19T01:38:07;95379.22;;;9.63;100.00
5500;BME280;2772;42.700;23.304;2023-02-19T01:40:35;95395.97;;;9.64;100.00
5500;BME280;2772;42.700;23.304;2023-02-19T01:43:01;95404.44;;;9.66;100.00
5500;BME280;2772;42.700;23.304;2023-02-19T01:45:29;95408.66;;;9.53;96.47
5500;BME280;2772;42.700;23.304;2023-02-19T01:48:06;95425.75;;;9.47;94.11
5500;BME280;2772;42.700;23.304;2023-02-19T01:50:37;95419.47;;;9.25;91.77
5500;BME280;2772;42.700;23.304;2023-02-19T01:53:08;95420.75;;;9.27;98.61
5500;BME280;2772;42.700;23.304;2023-02-19T01:55:39;95420.97;;;9.31;100.00
5500;BME280;2772;42.700;23.304;2023-02-19T01:58:07;95415.06;;;9.34;100.00
5500;BME280;2772;42.700;23.304;2023-02-19T02:00:35;95413.78;;;9.31;100.00
5500;BME280;2772;42.700;23.304;2023-02-19T02:03:03;95412.03;;;9.40;100.00
5500;BME280;2772;42.700;23.304;2023-02-19T02:05:41;95426.25;;;9.49;100.00
5500;BME280;2772;42.700;23.304;2023-02-19T02:08:11;95421.59;;;9.41;100.00
5500;BME280;2772;42.700;23.304;2023-02-19T02:10:53;95426.34;;;9.44;100.00
5500;BME280;2772;42.700;23.304;2023-02-19T02:13:21;95413.81;;;9.45;100.00
5500;BME280;2772;42.700;23.304;2023-02-19T02:15:55;95416.56;;;9.40;100.00
5500;BME280;2772;42.700;23.304;2023-02-19T02:18:35;95413.91;;;9.40;100.00
5500;BME280;2772;42.700;23.304;2023-02-19T02:21:27;95409.69;;;9.39;100.00
5500;BME280;2772;42.700;23.304;2023-02-19T02:24:09;95408.97;;;9.33;100.00
5500;BME280;2772;42.700;23.304;2023-02-19T02:26:46;95413.56;;;9.28;100.00
5500;BME280;2772;42.700;23.304;2023-02-19T02:32:30;95422.41;;;9.23;100.00
5500;BME280;2772;42.700;23.304;2023-02-19T02:35:01;95420.13;;;9.17;100.00
5500;BME280;2772;42.700;23.304;2023-02-19T02:37:32;95421.75;;;9.31;100.00
5500;BME280;2772;42.700;23.304;2023-02-19T02:40:00;95427.78;;;9.37;100.00
5500;BME280;2772;42.700;23.304;2023-02-19T02:42:28;95416.75;;;9.30;100.00
5500;BME280;2772;42.700;23.304;2023-02-19T02:44:55;95426.78;;;9.33;100.00
5500;BME280;2772;42.700;23.304;2023-02-19T02:47:46;95425.22;;;9.32;100.00
5500;BME280;2772;42.700;23.304;2023-02-19T02:50:17;95424.22;;;9.28;100.00
5500;BME280;2772;42.700;23.304;2023-02-19T02:52:48;95422.06;;;9.30;100.00
5500;BME280;2772;42.700;23.304;2023-02-19T02:55:35;95420.28;;;9.25;100.00
5500;BME280;2772;42.700;23.304;2023-02-19T02:58:04;95420.72;;;9.14;100.00
5500;BME280;2772;42.700;23.304;2023-02-19T03:00:32;95422.16;;;9.06;100.00
5500;BME280;2772;42.700;23.304;2023-02-19T03:03:16;95428.41;;;8.97;98.33
5500;BME280;2772;42.700;23.304;2023-02-19T03:05:45;95431.75;;;8.84;96.41
5500;BME280;2772;42.700;23.304;2023-02-19T03:08:22;95439.72;;;8.84;95.87
5500;BME280;2772;42.700;23.304;2023-02-19T03:10:53;95430.13;;;8.69;95.99
5500;BME280;2772;42.700;23.304;2023-02-19T03:13:25;95431.34;;;8.35;98.70
5500;BME280;2772;42.700;23.304;2023-02-19T03:16:14;95417.88;;;8.31;100.00
5500;BME280;2772;42.700;23.304;2023-02-19T03:19:03;95431.59;;;8.38;100.00
5500;BME280;2772;42.700;23.304;2023-02-19T03:21:51;95434.16;;;8.20;100.00
5500;BME280;2772;42.700;23.304;2023-02-19T03:24:22;95439.31;;;8.35;100.00
5500;BME280;2772;42.700;23.304;2023-02-19T03:27:08;95452.44;;;8.45;100.00
5500;BME280;2772;42.700;23.304;2023-02-19T03:29:37;95448.41;;;8.52;100.00
5500;BME280;2772;42.700;23.304;2023-02-19T03:32:08;95457.88;;;8.58;98.96
5500;BME280;2772;42.700;23.304;2023-02-19T03:34:40;95461.59;;;8.57;98.20
5500;BME280;2772;42.700;23.304;2023-02-19T03:37:11;95458.16;;;8.57;98.16
5500;BME280;2772;42.700;23.304;2023-02-19T03:39:39;95465.84;;;8.58;99.09
5500;BME280;2772;42.700;23.304;2023-02-19T03:42:17;95459.50;;;8.54;98.53
5500;BME280;2772;42.700;23.304;2023-02-19T03:44:55;95469.25;;;8.59;98.75
5500;BME280;2772;42.700;23.304;2023-02-19T03:47:29;95461.88;;;8.56;98.55
5500;BME280;2772;42.700;23.304;2023-02-19T03:50:03;95470.63;;;8.56;97.80
5500;BME280;2772;42.700;23.304;2023-02-19T03:52:40;95479.97;;;8.54;98.32
5500;BME280;2772;42.700;23.304;2023-02-19T03:55:11;95474.09;;;8.57;97.97
5500;BME280;2772;42.700;23.304;2023-02-19T03:57:48;95474.03;;;8.62;96.75
5500;BME280;2772;42.700;23.304;2023-02-19T04:00:17;95478.53;;;8.61;96.94
5500;BME280;2772;42.700;23.304;2023-02-19T04:02:49;95477.75;;;8.61;96.49
5500;BME280;2772;42.700;23.304;2023-02-19T04:05:23;95482.06;;;8.57;96.23
5500;BME280;2772;42.700;23.304;2023-02-19T04:07:54;95480.69;;;8.59;95.48
5500;BME280;2772;42.700;23.304;2023-02-19T04:10:23;95480.13;;;8.62;95.30
5500;BME280;2772;42.700;23.304;2023-02-19T04:12:54;95477.97;;;8.64;94.42
5500;BME280;2772;42.700;23.304;2023-02-19T04:15:26;95482.19;;;8.65;94.70
5500;BME280;2772;42.700;23.304;2023-02-19T04:17:56;95487.78;;;8.64;95.97
5500;BME280;2772;42.700;23.304;2023-02-19T04:20:28;95486.94;;;8.68;94.74
5500;BME280;2772;42.700;23.304;2023-02-19T04:22:56;95488.44;;;8.74;94.76
5500;BME280;2772;42.700;23.304;2023-02-19T04:25:25;95481.91;;;8.67;95.34
5500;BME280;2772;42.700;23.304;2023-02-19T04:27:53;95486.59;;;8.75;96.08
5500;BME280;2772;42.700;23.304;2023-02-19T04:30:20;95496.06;;;8.81;95.81
5500;BME280;2772;42.700;23.304;2023-02-19T04:32:47;95485.38;;;8.86;95.07
5500;BME280;2772;42.700;23.304;2023-02-19T04:35:13;95486.91;;;8.92;95.06
5500;BME280;2772;42.700;23.304;2023-02-19T04:37:41;95493.81;;;8.93;95.83
5500;BME280;2772;42.700;23.304;2023-02-19T04:40:09;95491.16;;;8.93;95.49
5500;BME280;2772;42.700;23.304;2023-02-19T04:42:36;95492.16;;;8.97;95.53
5500;BME280;2772;42.700;23.304;2023-02-19T04:45:03;95490.06;;;8.94;95.75
5500;BME280;2772;42.700;23.304;2023-02-19T04:47:30;95496.88;;;9.00;95.51
5500;BME280;2772;42.700;23.304;2023-02-19T04:49:57;95491.00;;;9.03;95.77
5500;BME280;2772;42.700;23.304;2023-02-19T04:52:23;95493.59;;;9.08;95.45
5500;BME280;2772;42.700;23.304;2023-02-19T04:54:51;95491.22;;;9.06;95.87
5500;BME280;2772;42.700;23.304;2023-02-19T04:57:18;95493.03;;;9.11;95.73
5500;BME280;2772;42.700;23.304;2023-02-19T04:59:45;95496.19;;;9.13;96.27
5500;BME280;2772;42.700;23.304;2023-02-19T05:02:12;95497.75;;;9.14;94.59
5500;BME280;2772;42.700;23.304;2023-02-19T05:04:39;95494.00;;;9.15;94.22
5500;BME280;2772;42.700;23.304;2023-02-19T05:07:07;95500.94;;;9.16;92.84
5500;BME280;2772;42.700;23.304;2023-02-19T05:09:34;95490.66;;;9.09;91.98
5500;BME280;2772;42.700;23.304;2023-02-19T05:12:02;95501.97;;;9.15;90.08
5500;BME280;2772;42.700;23.304;2023-02-19T05:14:29;95498.91;;;9.08;89.53
5500;BME280;2772;42.700;23.304;2023-02-19T05:16:56;95506.59;;;9.09;89.67
5500;BME280;2772;42.700;23.304;2023-02-19T05:19:22;95507.09;;;9.11;89.78
5500;BME280;2772;42.700;23.304;2023-02-19T05:21:49;95509.19;;;9.14;88.52
5500;BME280;2772;42.700;23.304;2023-02-19T05:24:16;95506.31;;;9.11;88.39
5500;BME280;2772;42.700;23.304;2023-02-19T05:26:42;95505.72;;;9.14;87.76
5500;BME280;2772;42.700;23.304;2023-02-19T05:29:11;95514.72;;;9.18;87.41
5500;BME280;2772;42.700;23.304;2023-02-19T05:31:37;95519.22;;;9.17;87.86
5500;BME280;2772;42.700;23.304;2023-02-19T05:34:04;95521.03;;;9.22;87.57
5500;BME280;2772;42.700;23.304;2023-02-19T05:36:31;95522.53;;;9.28;88.60
5500;BME280;2772;42.700;23.304;2023-02-19T05:38:58;95530.56;;;9.23;90.05
5500;BME280;2772;42.700;23.304;2023-02-19T05:41:26;95534.94;;;9.14;90.46
5500;BME280;2772;42.700;23.304;2023-02-19T05:43:54;95525.19;;;9.09;91.27
5500;BME280;2772;42.700;23.304;2023-02-19T05:46:24;95534.38;;;8.98;92.53
5500;BME280;2772;42.700;23.304;2023-02-19T05:48:51;95534.06;;;9.00;93.88
5500;BME280;2772;42.700;23.304;2023-02-19T05:51:20;95531.31;;;9.10;93.45
5500;BME280;2772;42.700;23.304;2023-02-19T05:53:47;95535.09;;;9.04;93.36
5500;BME280;2772;42.700;23.304;2023-02-19T05:56:23;95538.78;;;8.84;95.57
5500;BME280;2772;42.700;23.304;2023-02-19T05:58:54;95538.25;;;9.06;93.90
5500;BME280;2772;42.700;23.304;2023-02-19T06:01:25;95549.81;;;9.15;93.82
5500;BME280;2772;42.700;23.304;2023-02-19T06:03:52;95548.97;;;9.19;92.33
5500;BME280;2772;42.700;23.304;2023-02-19T06:06:19;95558.16;;;9.27;91.52
5500;BME280;2772;42.700;23.304;2023-02-19T06:08:47;95556.44;;;9.36;90.70
5500;BME280;2772;42.700;23.304;2023-02-19T06:11:14;95569.38;;;9.42;89.99
5500;BME280;2772;42.700;23.304;2023-02-19T06:13:41;95567.25;;;9.44;89.37
5500;BME280;2772;42.700;23.304;2023-02-19T06:16:09;95572.16;;;9.51;88.78
5500;BME280;2772;42.700;23.304;2023-02-19T06:18:37;95577.66;;;9.59;88.96
5500;BME280;2772;42.700;23.304;2023-02-19T06:21:08;95583.53;;;9.56;88.55
5500;BME280;2772;42.700;23.304;2023-02-19T06:23:35;95576.72;;;9.69;88.00
5500;BME280;2772;42.700;23.304;2023-02-19T06:26:07;95583.75;;;9.79;86.64
5500;BME280;2772;42.700;23.304;2023-02-19T06:28:34;95581.78;;;9.84;86.08
5500;BME280;2772;42.700;23.304;2023-02-19T06:31:02;95580.63;;;9.90;86.05
5500;BME280;2772;42.700;23.304;2023-02-19T06:33:28;95571.59;;;9.91;85.84
5500;BME280;2772;42.700;23.304;2023-02-19T06:35:58;95584.78;;;9.96;85.42
5500;BME280;2772;42.700;23.304;2023-02-19T06:38:26;95577.81;;;10.00;85.47
5500;BME280;2772;42.700;23.304;2023-02-19T06:40:53;95574.00;;;10.06;84.95
5500;BME280;2772;42.700;23.304;2023-02-19T06:43:20;95574.78;;;10.07;84.79
5500;BME280;2772;42.700;23.304;2023-02-19T06:45:47;95583.13;;;10.19;84.76
5500;BME280;2772;42.700;23.304;2023-02-19T06:48:13;95585.50;;;10.20;83.71
5500;BME280;2772;42.700;23.304;2023-02-19T06:50:40;95588.75;;;10.17;83.47
5500;BME280;2772;42.700;23.304;2023-02-19T06:53:08;95598.19;;;10.10;83.02
5500;BME280;2772;42.700;23.304;2023-02-19T06:55:36;95595.34;;;10.20;82.55
5500;BME280;2772;42.700;23.304;2023-02-19T06:58:04;95586.31;;;10.21;82.48
5500;BME280;2772;42.700;23.304;2023-02-19T07:00:31;95593.28;;;10.17;82.82
5500;BME280;2772;42.700;23.304;2023-02-19T07:02:58;95590.13;;;10.15;82.92
5500;BME280;2772;42.700;23.304;2023-02-19T07:05:25;95600.97;;;10.18;83.16
5500;BME280;2772;42.700;23.304;2023-02-19T07:07:51;95595.47;;;10.28;82.92
5500;BME280;2772;42.700;23.304;2023-02-19T07:10:19;95595.81;;;10.40;82.63
5500;BME280;2772;42.700;23.304;2023-02-19T07:12:46;95597.78;;;10.48;82.17
5500;BME280;2772;42.700;23.304;2023-02-19T07:15:13;95592.91;;;10.55;81.87
5500;BME280;2772;42.700;23.304;2023-02-19T07:17:39;95597.63;;;10.58;81.49
5500;BME280;2772;42.700;23.304;2023-02-19T07:20:07;95588.16;;;10.79;99.24
5500;BME280;2772;42.700;23.304;2023-02-19T07:22:33;95584.41;;;10.80;85.03
5500;BME280;2772;42.700;23.304;2023-02-19T07:25:00;95578.41;;;10.88;86.80
5500;BME280;2772;42.700;23.304;2023-02-19T07:27:28;95577.72;;;10.96;86.28
5500;BME280;2772;42.700;23.304;2023-02-19T07:29:55;95565.78;;;10.94;84.29
5500;BME280;2772;42.700;23.304;2023-02-19T07:32:22;95574.94;;;11.01;82.13
5500;BME280;2772;42.700;23.304;2023-02-19T07:34:48;95568.44;;;11.07;81.59
5500;BME280;2772;42.700;23.304;2023-02-19T07:37:15;95566.16;;;11.14;81.61
5500;BME280;2772;42.700;23.304;2023-02-19T07:39:42;95573.72;;;11.21;81.08
5500;BME280;2772;42.700;23.304;2023-02-19T07:42:08;95569.09;;;11.27;81.19
5500;BME280;2772;42.700;23.304;2023-02-19T07:44:37;95561.47;;;11.34;81.28
5500;BME280;2772;42.700;23.304;2023-02-19T07:47:03;95566.22;;;11.37;81.50
5500;BME280;2772;42.700;23.304;2023-02-19T07:49:30;95569.75;;;11.46;81.18
5500;BME280;2772;42.700;23.304;2023-02-19T07:51:57;95554.94;;;11.53;81.17
5500;BME280;2772;42.700;23.304;2023-02-19T07:54:24;95564.00;;;11.66;80.86
5500;BME280;2772;42.700;23.304;2023-02-19T07:56:50;95554.50;;;11.73;80.08
5500;BME280;2772;42.700;23.304;2023-02-19T07:59:17;95558.31;;;11.81;78.83
5500;BME280;2772;42.700;23.304;2023-02-19T08:01:47;95555.53;;;11.86;79.00
5500;BME280;2772;42.700;23.304;2023-02-19T08:04:31;95564.88;;;11.97;78.49
5500;BME280;2772;42.700;23.304;2023-02-19T08:06:58;95556.16;;;12.05;78.14
5500;BME280;2772;42.700;23.304;2023-02-19T08:09:25;95567.06;;;12.17;77.10
5500;BME280;2772;42.700;23.304;2023-02-19T08:11:51;95562.13;;;12.32;79.07
5500;BME280;2772;42.700;23.304;2023-02-19T08:14:32;95560.34;;;12.50;82.69
5500;BME280;2772;42.700;23.304;2023-02-19T08:17:00;95561.16;;;12.59;76.80
5500;BME280;2772;42.700;23.304;2023-02-19T08:19:27;95558.56;;;12.67;74.63
5500;BME280;2772;42.700;23.304;2023-02-19T08:21:54;95550.53;;;12.67;72.46
5500;BME280;2772;42.700;23.304;2023-02-19T08:24:21;95555.09;;;12.75;71.56
5500;BME280;2772;42.700;23.304;2023-02-19T08:26:47;95550.91;;;12.83;70.06
5500;BME280;2772;42.700;23.304;2023-02-19T08:29:14;95547.00;;;12.89;69.98
5500;BME280;2772;42.700;23.304;2023-02-19T08:31:41;95540.53;;;12.90;69.88
5500;BME280;2772;42.700;23.304;2023-02-19T08:34:09;95551.16;;;13.04;69.30
5500;BME280;2772;42.700;23.304;2023-02-19T08:36:36;95552.28;;;13.11;69.04
5500;BME280;2772;42.700;23.304;2023-02-19T08:39:03;95552.94;;;13.17;68.77
5500;BME280;2772;42.700;23.304;2023-02-19T08:41:30;95543.03;;;13.26;68.87
5500;BME280;2772;42.700;23.304;2023-02-19T08:43:56;95543.38;;;13.41;68.14
5500;BME280;2772;42.700;23.304;2023-02-19T08:46:23;95536.78;;;13.47;67.01
5500;BME280;2772;42.700;23.304;2023-02-19T08:48:50;95530.63;;;13.55;66.97
5500;BME280;2772;42.700;23.304;2023-02-19T08:51:18;95525.31;;;13.64;67.06
5500;BME280;2772;42.700;23.304;2023-02-19T08:53:45;95524.69;;;13.75;66.80
5500;BME280;2772;42.700;23.304;2023-02-19T08:56:14;95515.84;;;13.83;67.48
5500;BME280;2772;42.700;23.304;2023-02-19T08:58:42;95514.41;;;13.94;66.12
5500;BME280;2772;42.700;23.304;2023-02-19T09:01:09;95508.25;;;14.02;65.50
5500;BME280;2772;42.700;23.304;2023-02-19T09:03:36;95514.56;;;14.06;65.07
5500;BME280;2772;42.700;23.304;2023-02-19T09:06:03;95506.03;;;14.13;64.58
5500;BME280;2772;42.700;23.304;2023-02-19T09:08:32;95508.88;;;14.16;64.93
5500;BME280;2772;42.700;23.304;2023-02-19T09:10:59;95502.22;;;14.22;65.88
5500;BME280;2772;42.700;23.304;2023-02-19T09:13:26;95498.47;;;14.23;66.66
5500;BME280;2772;42.700;23.304;2023-02-19T09:15:53;95494.53;;;14.29;66.31
5500;BME280;2772;42.700;23.304;2023-02-19T09:18:21;95498.13;;;14.33;66.24
5500;BME280;2772;42.700;23.304;2023-02-19T09:20:48;95494.81;;;14.37;66.23
5500;BME280;2772;42.700;23.304;2023-02-19T09:23:15;95499.09;;;14.38;65.52
5500;BME280;2772;42.700;23.304;2023-02-19T09:25:43;95494.47;;;14.47;65.38
5500;BME280;2772;42.700;23.304;2023-02-19T09:28:10;95494.00;;;14.45;65.63
5500;BME280;2772;42.700;23.304;2023-02-19T09:30:36;95490.19;;;14.54;65.82
5500;BME280;2772;42.700;23.304;2023-02-19T09:33:03;95485.56;;;14.63;65.05
5500;BME280;2772;42.700;23.304;2023-02-19T09:35:30;95480.97;;;14.72;64.68
5500;BME280;2772;42.700;23.304;2023-02-19T09:37:58;95472.72;;;14.77;64.19
5500;BME280;2772;42.700;23.304;2023-02-19T09:40:26;95482.97;;;14.84;63.92
5500;BME280;2772;42.700;23.304;2023-02-19T09:42:54;95484.63;;;14.97;64.03
5500;BME280;2772;42.700;23.304;2023-02-19T09:45:24;95474.63;;;15.06;63.40
5500;BME280;2772;42.700;23.304;2023-02-19T09:47:53;95477.06;;;15.19;63.18
5500;BME280;2772;42.700;23.304;2023-02-19T09:50:26;95480.50;;;15.28;62.79
5500;BME280;2772;42.700;23.304;2023-02-19T09:52:59;95479.97;;;15.35;62.02
5500;BME280;2772;42.700;23.304;2023-02-19T09:55:33;95473.22;;;15.29;61.61
5500;BME280;2772;42.700;23.304;2023-02-19T09:58:07;95459.28;;;15.35;60.56
5500;BME280;2772;42.700;23.304;2023-02-19T10:00:40;95448.06;;;15.42;59.58
5500;BME280;2772;42.700;23.304;2023-02-19T10:03:10;95449.44;;;15.48;59.33
5500;BME280;2772;42.700;23.304;2023-02-19T10:05:40;95446.53;;;15.53;58.82
5500;BME280;2772;42.700;23.304;2023-02-19T10:08:12;95445.41;;;15.54;58.87
5500;BME280;2772;42.700;23.304;2023-02-19T10:10:43;95431.47;;;15.60;58.30
5500;BME280;2772;42.700;23.304;2023-02-19T10:13:17;95420.59;;;15.57;56.28
5500;BME280;2772;42.700;23.304;2023-02-19T10:15:46;95412.13;;;15.55;55.83
5500;BME280;2772;42.700;23.304;2023-02-19T10:18:19;95417.25;;;15.60;55.53
5500;BME280;2772;42.700;23.304;2023-02-19T10:20:46;95405.19;;;15.66;55.37
5500;BME280;2772;42.700;23.304;2023-02-19T10:23:15;95415.72;;;15.71;55.14
5500;BME280;2772;42.700;23.304;2023-02-19T10:25:44;95408.47;;;15.71;54.50
5500;BME280;2772;42.700;23.304;2023-02-19T10:28:16;95393.16;;;15.72;54.43
5500;BME280;2772;42.700;23.304;2023-02-19T10:30:44;95387.88;;;15.75;54.30
5500;BME280;2772;42.700;23.304;2023-02-19T10:33:15;95393.59;;;15.74;53.93
5500;BME280;2772;42.700;23.304;2023-02-19T10:35:53;95383.84;;;15.69;54.08
5500;BME280;2772;42.700;23.304;2023-02-19T10:38:24;95379.72;;;15.72;53.94
5500;BME280;2772;42.700;23.304;2023-02-19T10:40:58;95362.81;;;15.71;53.84
5500;BME280;2772;42.700;23.304;2023-02-19T10:43:28;95360.34;;;15.78;53.54
5500;BME280;2772;42.700;23.304;2023-02-19T10:46:00;95350.53;;;15.82;53.66
5500;BME280;2772;42.700;23.304;2023-02-19T10:48:29;95342.28;;;15.88;53.14
5500;BME280;2772;42.700;23.304;2023-02-19T10:51:00;95341.59;;;15.91;53.32
5500;BME280;2772;42.700;23.304;2023-02-19T10:53:40;95332.31;;;16.00;53.29
5500;BME280;2772;42.700;23.304;2023-02-19T10:56:09;95336.78;;;16.08;52.66
5500;BME280;2772;42.700;23.304;2023-02-19T10:58:38;95322.13;;;16.06;52.39
5500;BME280;2772;42.700;23.304;2023-02-19T11:01:12;95321.25;;;16.14;52.36
5500;BME280;2772;42.700;23.304;2023-02-19T11:03:41;95316.88;;;16.21;52.16
5500;BME280;2772;42.700;23.304;2023-02-19T11:06:09;95298.97;;;16.25;52.07
5500;BME280;2772;42.700;23.304;2023-02-19T11:08:46;95306.78;;;16.30;51.84
5500;BME280;2772;42.700;23.304;2023-02-19T11:11:26;95304.22;;;16.34;51.23
5500;BME280;2772;42.700;23.304;2023-02-19T11:13:57;95298.63;;;16.39;51.17
5500;BME280;2772;42.700;23.304;2023-02-19T11:16:37;95287.97;;;16.42;50.94
5500;BME280;2772;42.700;23.304;2023-02-19T11:19:05;95280.13;;;16.49;50.61
5500;BME280;2772;42.700;23.304;2023-02-19T11:21:32;95278.34;;;16.53;50.68
5500;BME280;2772;42.700;23.304;2023-02-19T11:23:59;95270.72;;;16.55;50.46
5500;BME280;2772;42.700;23.304;2023-02-19T11:26:32;95274.31;;;16.59;50.37
5500;BME280;2772;42.700;23.304;2023-02-19T11:29:15;95268.66;;;16.64;49.39
5500;BME280;2772;42.700;23.304;2023-02-19T11:31:44;95251.09;;;16.67;48.86
5500;BME280;2772;42.700;23.304;2023-02-19T11:34:25;95245.13;;;16.73;49.47
5500;BME280;2772;42.700;23.304;2023-02-19T11:37:07;95240.72;;;16.81;48.77
5500;BME280;2772;42.700;23.304;2023-02-19T11:39:35;95242.41;;;16.85;48.76
5500;BME280;2772;42.700;23.304;2023-02-19T11:42:19;95233.19;;;16.86;48.09
5500;BME280;2772;42.700;23.304;2023-02-19T11:45:01;95231.81;;;16.92;47.78
5500;BME280;2772;42.700;23.304;2023-02-19T11:47:57;95220.47;;;16.99;47.41
5500;BME280;2772;42.700;23.304;2023-02-19T11:50:35;95222.91;;;17.04;47.18
5500;BME280;2772;42.700;23.304;2023-02-19T11:53:14;95225.47;;;17.12;46.45
5500;BME280;2772;42.700;23.304;2023-02-19T11:55:50;95214.09;;;17.19;46.28
5500;BME280;2772;42.700;23.304;2023-02-19T12:01:33;95210.44;;;17.27;45.63
5500;BME280;2772;42.700;23.304;2023-02-19T12:07:13;95199.19;;;17.37;45.60
5500;BME280;2772;42.700;23.304;2023-02-19T12:09:52;95198.59;;;17.43;45.00
5500;BME280;2772;42.700;23.304;2023-02-19T12:12:35;95190.69;;;17.51;44.54
5500;BME280;2772;42.700;23.304;2023-02-19T12:15:21;95183.91;;;17.57;44.70
5500;BME280;2772;42.700;23.304;2023-02-19T12:18:08;95180.88;;;17.58;44.21
5500;BME280;2772;42.700;23.304;2023-02-19T12:20:42;95168.28;;;17.62;44.40
5500;BME280;2772;42.700;23.304;2023-02-19T12:23:33;95166.53;;;17.70;44.27
5500;BME280;2772;42.700;23.304;2023-02-19T12:26:07;95160.63;;;17.80;43.64
5500;BME280;2772;42.700;23.304;2023-02-19T12:34:46;95147.13;;;17.95;42.51
5500;BME280;2772;42.700;23.304;2023-02-19T12:37:25;95137.47;;;17.94;42.30
5500;BME280;2772;42.700;23.304;2023-02-19T12:40:07;95135.19;;;17.96;42.21
5500;BME280;2772;42.700;23.304;2023-02-19T12:42:48;95128.66;;;17.97;42.37
5500;BME280;2772;42.700;23.304;2023-02-19T12:45:18;95136.00;;;17.97;42.67
5500;BME280;2772;42.700;23.304;2023-02-19T12:47:58;95125.97;;;17.97;42.37
5500;BME280;2772;42.700;23.304;2023-02-19T12:50:30;95114.13;;;18.02;41.90
5500;BME280;2772;42.700;23.304;2023-02-19T12:53:00;95102.94;;;18.00;41.69
5500;BME280;2772;42.700;23.304;2023-02-19T12:55:31;95099.09;;;18.01;42.03
5500;BME280;2772;42.700;23.304;2023-02-19T12:58:02;95097.59;;;18.03;41.92
5500;BME280;2772;42.700;23.304;2023-02-19T13:00:32;95090.75;;;18.06;42.12
5500;BME280;2772;42.700;23.304;2023-02-19T13:03:04;95085.09;;;18.11;41.87
5500;BME280;2772;42.700;23.304;2023-02-19T13:05:43;95087.06;;;18.14;41.73
5500;BME280;2772;42.700;23.304;2023-02-19T13:08:15;95078.63;;;18.15;41.97
5500;BME280;2772;42.700;23.304;2023-02-19T13:10:52;95074.72;;;18.13;41.60
5500;BME280;2772;42.700;23.304;2023-02-19T13:13:24;95075.22;;;18.18;41.60
5500;BME280;2772;42.700;23.304;2023-02-19T13:15:56;95067.22;;;18.22;40.99
5500;BME280;2772;42.700;23.304;2023-02-19T13:18:29;95061.66;;;18.34;41.33
5500;BME280;2772;42.700;23.304;2023-02-19T13:20:59;95057.06;;;18.34;41.13
5500;BME280;2772;42.700;23.304;2023-02-19T13:23:29;95053.16;;;18.32;40.81
5500;BME280;2772;42.700;23.304;2023-02-19T13:26:42;95055.91;;;18.35;41.09
5500;BME280;2772;42.700;23.304;2023-02-19T13:29:19;95046.78;;;18.40;41.41
5500;BME280;2772;42.700;23.304;2023-02-19T13:32:10;95041.81;;;18.42;41.21
5500;BME280;2772;42.700;23.304;2023-02-19T13:34:53;95029.53;;;18.44;40.94
5500;BME280;2772;42.700;23.304;2023-02-19T13:37:24;95031.56;;;18.51;41.21
5500;BME280;2772;42.700;23.304;2023-02-19T13:39:52;95023.25;;;18.59;40.31
5500;BME280;2772;42.700;23.304;2023-02-19T13:42:24;95029.59;;;18.70;40.25
5500;BME280;2772;42.700;23.304;2023-02-19T13:44:52;95021.16;;;18.72;40.19
5500;BME280;2772;42.700;23.304;2023-02-19T13:47:45;95020.31;;;18.68;40.34
5500;BME280;2772;42.700;23.304;2023-02-19T13:50:17;95016.91;;;18.71;39.95